Flight Track Log - Related Links

Times and Time Zones

All times are in EDT time to prevent confusion due to time zone crossing. See the AWE66 flight status page for this flight to view local times or setup timezone preferences in your user account.

Time Position Orientation Groundspeed Altitude Reporting Facility
EDT Latitude Longitude Course Direction KTS MPH feet Rate Location/Type
Mon 05:49:53 PM 40.5533 -73.8275 128° Southeast 199 229 3,200  Level New York Center
Mon 05:50:55 PM 40.4989 -73.7622 138° Southeast 240 276 5,400 1,820 Climbing New York Center
Mon 05:51:00 PM 40.4148 -73.3858 128° Southeast  Level FlightAware Approximate
Mon 05:51:55 PM 40.4719 -73.6711 111° Southeast 262 302 6,900  Level New York Center
Mon 05:52:00 PM 40.3269 -73.2487 131° Southeast  Level FlightAware Approximate
Mon 05:52:54 PM 40.4308 -73.5603 116° Southeast 296 341 8,700  Level New York Center
Mon 05:53:00 PM 40.2421 -73.1085 128° Southeast  Level FlightAware Approximate
Mon 05:53:53 PM 40.3997 -73.4664 113° Southeast 309 356 11,500  Level New York Center
Mon 05:54:00 PM 40.1578 -72.9679 128° Southeast  Level FlightAware Approximate
Mon 05:54:53 PM 40.3608 -73.3422 112° Southeast 319 367 14,300  Level New York Center
Mon 05:55:54 PM 40.3214 -73.2375 116° Southeast 339 390 15,700 1,850 Climbing New York Center
Mon 05:56:53 PM 40.2450 -73.1042 127° Southeast 391 450 18,000 2,300 Climbing New York Center
Mon 05:57:54 PM 40.1681 -72.9794 129° Southeast 415 478 20,300 2,200 Climbing New York Center
Mon 05:58:53 PM 40.0933 -72.8522 127° Southeast 434 499 22,400 1,350 Climbing New York Center
Mon 05:59:54 PM 40.0164 -72.7225 128° Southeast 446 513 23,000 836 Climbing New York Center
Mon 06:00:55 PM 39.9375 -72.5875 127° Southeast 457 526 24,100 1,513 Climbing New York Center
Mon 06:01:53 PM 39.8561 -72.4528 128° Southeast 462 532 26,000 1,785 Climbing New York Center
Mon 06:02:56 PM 39.7894 -72.3025 120° Southeast 473 544 27,700 1,488 Climbing New York Center
Mon 06:03:54 PM 39.7708 -72.1239 98° East 473 544 29,000 650 Climbing New York Center
Mon 06:04:56 PM 39.7561 -71.9428 96° East 484 557 29,000  Level New York Center
Mon 06:05:54 PM 39.7411 -71.7644 96° East 499 574 29,000  Level New York Center
Mon 06:06:53 PM 39.7278 -71.5994 96° East 505 581 29,000  Level New York Center
Mon 06:07:55 PM 39.7061 -71.4267 99° East 500 575 29,000 492 Level New York Center
Mon 06:08:55 PM 39.6861 -71.2458 98° East 500 575 30,000 1,008 Climbing New York Center
Mon 06:09:54 PM 39.6661 -71.0622 98° East 505 581 31,000 500 Climbing New York Center
Mon 06:10:55 PM 39.6414 -70.8842 100° East 505 581 31,000  Level New York Center
Mon 06:11:55 PM 39.6228 -70.7008 97° East 505 581 31,000  Level New York Center
Mon 06:12:54 PM 39.6017 -70.5150 98° East 505 581 31,000  Level New York Center
Mon 06:13:55 PM 39.5803 -70.3344 99° East 505 581 31,000 202 Level New York Center
Mon 06:14:53 PM 39.5567 -70.1542 100° East 505 581 31,400 1,160 Climbing New York Center
Mon 06:15:54 PM 39.5306 -69.9661 100° East 500 575 33,300 1,574 Climbing New York Center
Mon 06:16:55 PM 39.5064 -69.7808 100° East 500 575 34,600 1,160 Climbing New York Center
Mon 06:17:53 PM 39.4839 -69.5981 99° East 505 581 35,600 700 Climbing New York Center
Mon 06:18:55 PM 39.4592 -69.4156 100° East 511 588 36,000 200 Climbing New York Center
Mon 06:19:53 PM 39.4342 -69.2333 100° East 511 588 36,000  Level New York Center
Mon 06:20:54 PM 39.4108 -69.0539 99° East 511 588 36,000  Level New York Center
Mon 06:21:55 PM 39.3853 -68.8744 100° East 506 582 36,000  Level New York Center
Mon 06:22:56 PM 39.3617 -68.6950 100° East 506 582 36,000  Level New York Center
Mon 06:23:53 PM 39.3375 -68.5158 100° East 506 582 36,000  Level New York Center
Mon 06:24:53 PM 39.3133 -68.3342 100° East 506 582 36,000  Level New York Center
Mon 06:25:54 PM 39.2886 -68.1581 100° East 506 582 36,000  Level New York Center
Mon 06:26:54 PM 39.2617 -67.9739 101° East 506 582 36,000  Level New York Center
Mon 06:27:54 PM 39.2344 -67.7981 101° East 507 583 36,000  Level New York Center
Mon 06:28:54 PM 39.2069 -67.6169 101° East 507 583 36,000  Level New York Center
Mon 06:29:55 PM 39.1833 -67.4331 99° East 507 583 36,000  Level New York Center
Mon 06:30:54 PM 39.1533 -67.2550 102° East 507 583 36,000  Level New York Center
Mon 06:31:55 PM 39.1289 -67.0717 100° East 507 583 36,000  Level New York Center
Mon 06:32:34 PM 39.1167 -67.0000 78° East 505 581 36,000  Level New York Oceanic (ODAPS)
Mon 06:35:51 PM 39.2167 -66.3667 79° East 507 583 36,000  Level New York Oceanic (ODAPS)
Mon 06:46:43 PM 39.4667 -64.6500 80° East 508 585 36,000  Level New York Oceanic (ODAPS)
Mon 06:55:04 PM 39.6833 -62.9333 81° East 507 583 36,000  Level New York Oceanic (ODAPS)
Mon 07:04:41 PM 39.8833 -61.1833 82° East 501 577 36,000  Level New York Oceanic (ODAPS)
Mon 07:11:28 PM 40.0000 -60.0000 72° East 507 583 36,000  Level New York Oceanic (ODAPS)
Mon 07:14:16 PM 40.1333 -59.4833 72° East 508 585 36,000  Level New York Oceanic (ODAPS)
Mon 07:14:50 PM 40.1500 -59.4000 72° East 509 586 36,000  Level New York Oceanic (ODAPS)
Mon 07:15:00 PM 40.1741 -59.2941 72° East 501 577 36,000  Level FlightAware Transoceanic
Mon 07:15:03 PM 40.1500 -59.3667 72° East 509 586 36,000  Level New York Oceanic (ODAPS)
Mon 07:16:37 PM 40.2167 -59.1500 73° East 507 583 36,000  Level New York Oceanic (ODAPS)
Mon 07:25:09 PM 40.5167 -57.8667 73° East 500 575 36,000  Level New York Oceanic (ODAPS)
Mon 07:25:55 PM 40.5500 -57.7333 73° East 500 575 36,000  Level New York Oceanic (ODAPS)
Mon 07:33:38 PM 40.8667 -56.2667 74° East 506 582 36,000  Level New York Oceanic (ODAPS)
Mon 07:35:16 PM 40.9333 -55.9667 75° East 511 588 36,000  Level New York Oceanic (ODAPS)
Mon 07:43:44 PM 41.2167 -54.5500 76° East 508 585 36,000  Level New York Oceanic (ODAPS)
Mon 07:53:45 PM 41.5333 -52.8167 77° East 503 579 36,000  Level New York Oceanic (ODAPS)
Mon 08:02:36 PM 41.8333 -51.0833 78° East 502 578 36,000  Level New York Oceanic (ODAPS)
Mon 08:08:39 PM 42.0000 -50.0500 90° East 510 587 36,000  Level New York Oceanic (ODAPS)
Mon 08:09:41 PM 42.0833 -49.6667 72° East 510 587 36,000  Level New York Oceanic (ODAPS)
Mon 08:12:03 PM 42.1667 -49.3167 72° East 510 587 36,000  Level New York Oceanic (ODAPS)
Mon 08:21:29 PM 42.5333 -47.7667 73° East 503 579 36,000  Level New York Oceanic (ODAPS)
Mon 08:31:07 PM 42.9167 -46.0667 74° East 499 574 36,000  Level New York Oceanic (ODAPS)
Mon 08:40:42 PM 43.2500 -44.3333 75° East 497 572 36,000  Level New York Oceanic (ODAPS)
Mon 08:50:16 PM 43.5833 -42.5833 77° East 496 571 36,000  Level New York Oceanic (ODAPS)
Mon 08:59:52 PM 43.8833 -40.8000 78° East 496 571 36,000  Level New York Oceanic (ODAPS)
Mon 09:18:25 PM 44.0000 -40.0000 87° East 507 583 36,000  Level ETMS Enhanced Traffic Management System
Mon 09:19:00 PM 44.0906 -37.0609 89° East 496 571 36,000  Level FlightAware Transoceanic
Mon 09:20:00 PM 44.0940 -36.8647 89° East 496 571 36,000  Level FlightAware Transoceanic
Mon 09:21:00 PM 44.0970 -36.6685 89° East 496 571 36,000  Level FlightAware Transoceanic
Mon 09:22:00 PM 44.0997 -36.4722 89° East 496 571 36,000  Level FlightAware Transoceanic
Mon 09:23:00 PM 44.1021 -36.2760 89° East 496 571 36,000  Level FlightAware Transoceanic
Mon 09:24:00 PM 44.1041 -36.0797 89° East 507 583 36,000  Level FlightAware Transoceanic
Mon 09:25:00 PM 44.1058 -35.8834 89° East 507 583 36,000  Level FlightAware Transoceanic
Mon 09:26:00 PM 44.1071 -35.6871 90° East 507 583 36,000  Level FlightAware Transoceanic
Mon 09:27:00 PM 44.1081 -35.4908 90° East 507 583 36,000  Level FlightAware Transoceanic
Mon 09:28:00 PM 44.1088 -35.2945 90° East 507 583 36,000  Level FlightAware Transoceanic
Mon 09:29:00 PM 44.1091 -35.0982 90° East 507 583 36,000  Level FlightAware Transoceanic
Mon 09:30:00 PM 44.1091 -34.9018 90° East 507 583 36,000  Level FlightAware Transoceanic
Mon 09:31:00 PM 44.1088 -34.7055 90° East 507 583 36,000  Level FlightAware Transoceanic
Mon 09:32:00 PM 44.1081 -34.5092 90° East 507 583 36,000  Level FlightAware Transoceanic
Mon 09:33:00 PM 44.1071 -34.3129 90° East 507 583 36,000  Level FlightAware Transoceanic
Mon 09:34:00 PM 44.1058 -34.1166 91° East 507 583 36,000  Level FlightAware Transoceanic
Mon 09:35:00 PM 44.1041 -33.9203 91° East 507 583 36,000  Level FlightAware Transoceanic
Mon 09:36:00 PM 44.1021 -33.7240 91° East 507 583 36,000  Level FlightAware Transoceanic
Mon 09:37:00 PM 44.0997 -33.5278 91° East 507 583 36,000  Level FlightAware Transoceanic
Mon 09:38:00 PM 44.0970 -33.3315 91° East 507 583 36,000  Level FlightAware Transoceanic
Mon 09:39:00 PM 44.0940 -33.1353 91° East 507 583 36,000  Level FlightAware Transoceanic
Mon 09:40:00 PM 44.0906 -32.9391 91° East 507 583 36,000  Level FlightAware Transoceanic
Mon 09:41:00 PM 44.0869 -32.7429 92° East 507 583 36,000  Level FlightAware Transoceanic
Mon 09:42:00 PM 44.0829 -32.5467 92° East 507 583 36,000  Level FlightAware Transoceanic
Mon 09:43:00 PM 44.0785 -32.3506 92° East 507 583 36,000  Level FlightAware Transoceanic
Mon 09:44:00 PM 44.0738 -32.1545 92° East 507 583 36,000  Level FlightAware Transoceanic
Mon 09:45:00 PM 44.0688 -31.9584 92° East 507 583 36,000  Level FlightAware Transoceanic
Mon 09:46:00 PM 44.0634 -31.7624 92° East 507 583 36,000  Level FlightAware Transoceanic
Mon 09:47:00 PM 44.0577 -31.5664 92° East 507 583 36,000  Level FlightAware Transoceanic
Mon 09:48:00 PM 44.0517 -31.3704 93° East 507 583 36,000  Level FlightAware Transoceanic
Mon 09:49:00 PM 44.0453 -31.1745 93° East 507 583 36,000  Level FlightAware Transoceanic
Mon 09:50:00 PM 44.0386 -30.9786 93° East 507 583 36,000  Level FlightAware Transoceanic
Mon 09:51:00 PM 44.0315 -30.7828 93° East 507 583 36,000  Level FlightAware Transoceanic
Mon 09:52:00 PM 44.0242 -30.5870 93° East 507 583 36,000  Level FlightAware Transoceanic
Mon 09:53:00 PM 44.0164 -30.3913 93° East 507 583 36,000  Level FlightAware Transoceanic
Mon 09:54:00 PM 44.0084 -30.1956 93° East 507 583 36,000  Level FlightAware Transoceanic
Mon 09:55:00 PM 44.0003 -30.0078 93° East  Level FlightAware Approximate
Mon 09:56:00 PM 43.9920 -29.8199 93° East  Level FlightAware Approximate
Mon 09:57:00 PM 43.9895 -29.8280 95° East  Level FlightAware Approximate
Mon 09:58:00 PM 43.9778 -29.6406 95° East  Level FlightAware Approximate
Mon 09:59:00 PM 43.9658 -29.4532 95° East  Level FlightAware Approximate
Mon 10:00:00 PM 43.9534 -29.2659 95° East  Level FlightAware Approximate
Mon 10:01:00 PM 43.9408 -29.0787 95° East  Level FlightAware Approximate
Mon 10:02:00 PM 43.9279 -28.8916 95° East  Level FlightAware Approximate
Mon 10:03:00 PM 43.9147 -28.7046 95° East  Level FlightAware Approximate
Mon 10:04:00 PM 43.9020 -28.5175 95° East  Level FlightAware Approximate
Mon 10:05:00 PM 43.8890 -28.3305 95° East  Level FlightAware Approximate
Mon 10:06:00 PM 43.8757 -28.1436 96° East  Level FlightAware Approximate
Mon 10:07:00 PM 43.8621 -27.9568 96° East  Level FlightAware Approximate
Mon 10:08:00 PM 43.8482 -27.7701 96° East  Level FlightAware Approximate
Mon 10:09:00 PM 43.8340 -27.5834 96° East  Level FlightAware Approximate
Mon 10:10:00 PM 43.8194 -27.3968 96° East  Level FlightAware Approximate
Mon 10:11:00 PM 43.8046 -27.2104 96° East  Level FlightAware Approximate
Mon 10:12:00 PM 43.7895 -27.0240 96° East  Level FlightAware Approximate
Mon 10:13:00 PM 43.7740 -26.8377 96° East  Level FlightAware Approximate
Mon 10:14:00 PM 43.7583 -26.6516 97° East  Level FlightAware Approximate
Mon 10:15:00 PM 43.7422 -26.4655 97° East  Level FlightAware Approximate
Mon 10:16:00 PM 43.7259 -26.2795 97° East  Level FlightAware Approximate
Mon 10:17:00 PM 43.7093 -26.0936 97° East  Level FlightAware Approximate
Mon 10:18:00 PM 43.6923 -25.9079 97° East  Level FlightAware Approximate
Mon 10:19:00 PM 43.6751 -25.7222 97° East  Level FlightAware Approximate
Mon 10:20:00 PM 43.6575 -25.5366 97° East  Level FlightAware Approximate
Mon 10:21:00 PM 43.6397 -25.3512 98° East  Level FlightAware Approximate
Mon 10:22:00 PM 43.6215 -25.1658 98° East  Level FlightAware Approximate
Mon 10:23:00 PM 43.6031 -24.9806 98° East  Level FlightAware Approximate
Mon 10:24:00 PM 43.5846 -24.7954 98° East  Level FlightAware Approximate
Mon 10:25:00 PM 43.5660 -24.6104 98° East  Level FlightAware Approximate
Mon 10:26:00 PM 43.5470 -24.4254 98° East  Level FlightAware Approximate
Mon 10:27:00 PM 43.5278 -24.2406 98° East  Level FlightAware Approximate
Mon 10:28:00 PM 43.5082 -24.0558 98° East  Level FlightAware Approximate
Mon 10:29:00 PM 43.4884 -23.8713 98° East  Level FlightAware Approximate
Mon 10:30:00 PM 43.4682 -23.6868 98° East  Level FlightAware Approximate
Mon 10:31:00 PM 43.4478 -23.5024 99° East  Level FlightAware Approximate
Mon 10:32:00 PM 43.4271 -23.3182 99° East  Level FlightAware Approximate
Mon 10:33:00 PM 43.4060 -23.1341 99° East  Level FlightAware Approximate
Mon 10:34:00 PM 43.3847 -22.9501 99° East  Level FlightAware Approximate
Mon 10:35:00 PM 43.3631 -22.7663 99° East  Level FlightAware Approximate
Mon 10:36:00 PM 43.3411 -22.5826 99° East  Level FlightAware Approximate
Mon 10:37:00 PM 43.3189 -22.3990 99° East  Level FlightAware Approximate
Mon 10:38:00 PM 43.2964 -22.2156 100° East  Level FlightAware Approximate
Mon 10:39:00 PM 43.2736 -22.0322 100° East  Level FlightAware Approximate
Mon 10:40:00 PM 43.2505 -21.8491 100° East  Level FlightAware Approximate
Mon 10:41:00 PM 43.2272 -21.6661 100° East  Level FlightAware Approximate
Mon 10:42:00 PM 43.2035 -21.4832 100° East  Level FlightAware Approximate
Mon 10:43:00 PM 43.1795 -21.3004 100° East  Level FlightAware Approximate
Mon 10:44:00 PM 43.1553 -21.1178 100° East  Level FlightAware Approximate
Mon 10:45:00 PM 43.1307 -20.9354 100° East  Level FlightAware Approximate
Mon 10:46:00 PM 43.1059 -20.7531 101° East  Level FlightAware Approximate
Mon 10:47:00 PM 43.0808 -20.5709 101° East  Level FlightAware Approximate
Mon 10:48:00 PM 43.0553 -20.3889 101° East  Level FlightAware Approximate
Mon 10:49:00 PM 43.0296 -20.2071 101° East  Level FlightAware Approximate
Mon 10:50:00 PM 43.0038 -20.0262 101° East  Level FlightAware Approximate
Mon 10:51:00 PM 43.0067 -19.8428 87° East  Level FlightAware Approximate
Mon 10:52:00 PM 43.0143 -19.6588 87° East  Level FlightAware Approximate
Mon 10:53:00 PM 43.0216 -19.4748 87° East  Level FlightAware Approximate
Mon 10:54:00 PM 43.0285 -19.2907 87° East  Level FlightAware Approximate
Mon 10:55:00 PM 43.0352 -19.1066 87° East  Level FlightAware Approximate
Mon 10:56:00 PM 43.0416 -18.9225 87° East  Level FlightAware Approximate
Mon 10:57:00 PM 43.0477 -18.7383 87° East  Level FlightAware Approximate
Mon 10:58:00 PM 43.0535 -18.5541 87° East  Level FlightAware Approximate
Mon 10:59:00 PM 43.0591 -18.3699 88° East  Level FlightAware Approximate
Mon 11:00:00 PM 43.0643 -18.1856 88° East  Level FlightAware Approximate
Mon 11:01:00 PM 43.0692 -18.0013 88° East  Level FlightAware Approximate
Mon 11:02:00 PM 43.0738 -17.8170 88° East  Level FlightAware Approximate
Mon 11:03:00 PM 43.0781 -17.6326 88° East  Level FlightAware Approximate
Mon 11:04:00 PM 43.0821 -17.4482 88° East  Level FlightAware Approximate
Mon 11:05:00 PM 43.0859 -17.2638 88° East  Level FlightAware Approximate
Mon 11:06:00 PM 43.0893 -17.0794 88° East  Level FlightAware Approximate
Mon 11:07:00 PM 43.0925 -16.8949 89° East  Level FlightAware Approximate
Mon 11:08:00 PM 43.0953 -16.7105 89° East  Level FlightAware Approximate
Mon 11:09:00 PM 43.0979 -16.5260 89° East  Level FlightAware Approximate
Mon 11:10:00 PM 43.1001 -16.3415 89° East  Level FlightAware Approximate
Mon 11:11:00 PM 43.1021 -16.1570 89° East  Level FlightAware Approximate
Mon 11:12:00 PM 43.1037 -15.9724 89° East  Level FlightAware Approximate
Mon 11:13:00 PM 43.1051 -15.7879 89° East  Level FlightAware Approximate
Mon 11:14:00 PM 43.1062 -15.6034 89° East  Level FlightAware Approximate
Mon 11:15:00 PM 43.1069 -15.4188 90° East  Level FlightAware Approximate
Mon 11:16:00 PM 43.1074 -15.2343 90° East  Level FlightAware Approximate
Mon 11:17:00 PM 43.1076 -15.0497 90° East  Level FlightAware Approximate
Mon 11:18:00 PM 43.1075 -14.8652 90° East  Level FlightAware Approximate
Mon 11:19:00 PM 43.1070 -14.6806 90° East  Level FlightAware Approximate
Mon 11:20:00 PM 43.1063 -14.4961 90° East  Level FlightAware Approximate
Mon 11:21:00 PM 43.1053 -14.3116 90° East  Level FlightAware Approximate
Mon 11:22:00 PM 43.1040 -14.1270 90° East  Level FlightAware Approximate
Mon 11:23:00 PM 43.1024 -13.9425 91° East  Level FlightAware Approximate
Mon 11:24:00 PM 43.1005 -13.7580 91° East  Level FlightAware Approximate
Mon 11:25:00 PM 43.0983 -13.5735 91° East  Level FlightAware Approximate
Mon 11:26:00 PM 43.0958 -13.3894 91° East  Level FlightAware Approximate
Mon 11:27:00 PM 43.0930 -13.2054 91° East  Level FlightAware Approximate
Mon 11:28:00 PM 43.0900 -13.0214 91° East  Level FlightAware Approximate
Mon 11:29:00 PM 43.0866 -12.8374 91° East  Level FlightAware Approximate
Mon 11:30:00 PM 43.0829 -12.6534 91° East  Level FlightAware Approximate
Mon 11:31:00 PM 43.0790 -12.4694 92° East  Level FlightAware Approximate
Mon 11:32:00 PM 43.0747 -12.2855 92° East  Level FlightAware Approximate
Mon 11:33:00 PM 43.0702 -12.1016 92° East  Level FlightAware Approximate
Mon 11:34:00 PM 43.0653 -11.9177 92° East  Level FlightAware Approximate
Mon 11:35:00 PM 43.0602 -11.7339 92° East  Level FlightAware Approximate
Mon 11:36:00 PM 43.0548 -11.5500 92° East  Level FlightAware Approximate
Mon 11:37:00 PM 43.0490 -11.3663 92° East  Level FlightAware Approximate
Mon 11:38:00 PM 43.0430 -11.1825 93° East  Level FlightAware Approximate
Mon 11:39:00 PM 43.0367 -10.9988 93° East  Level FlightAware Approximate
Mon 11:40:00 PM 43.0301 -10.8151 93° East  Level FlightAware Approximate
Mon 11:41:00 PM 43.0232 -10.6315 93° East  Level FlightAware Approximate
Mon 11:42:00 PM 43.0160 -10.4479 93° East  Level FlightAware Approximate
Mon 11:43:00 PM 43.0085 -10.2644 93° East  Level FlightAware Approximate
Mon 11:44:00 PM 43.0007 -10.0809 93° East  Level FlightAware Approximate
Mon 11:45:00 PM 42.9927 -9.8974 93° East  Level FlightAware Approximate
Mon 11:46:00 PM 42.9843 -9.7140 94° East  Level FlightAware Approximate
Mon 11:47:00 PM 42.9756 -9.5306 94° East  Level FlightAware Approximate
Mon 11:48:00 PM 42.9667 -9.3473 94° East  Level FlightAware Approximate
Mon 11:49:00 PM 42.9574 -9.1641 94° East  Level FlightAware Approximate
Mon 11:50:00 PM 42.9479 -8.9813 94° East  Level FlightAware Approximate
Mon 11:51:00 PM 42.9381 -8.7986 94° East  Level FlightAware Approximate
Mon 11:52:00 PM 42.9280 -8.6160 94° East  Level FlightAware Approximate
Mon 11:53:00 PM 42.9176 -8.4334 94° East  Level FlightAware Approximate
Mon 11:54:00 PM 42.8994 -8.2520 98° East  Level FlightAware Approximate
Mon 11:55:00 PM 42.8800 -8.0709 98° East  Level FlightAware Approximate
Mon 11:56:00 PM 42.8604 -7.8899 98° East  Level FlightAware Approximate
Mon 11:57:00 PM 42.8405 -7.7090 98° East  Level FlightAware Approximate
Mon 11:58:00 PM 42.8204 -7.5282 99° East  Level FlightAware Approximate
Mon 11:59:00 PM 42.7999 -7.3476 99° East  Level FlightAware Approximate
Tue 12:00:00 AM 42.7792 -7.1670 99° East  Level FlightAware Approximate
Tue 12:01:00 AM 42.7581 -6.9866 99° East  Level FlightAware Approximate
Tue 12:02:00 AM 42.7368 -6.8063 99° East  Level FlightAware Approximate
Tue 12:03:00 AM 42.7152 -6.6261 99° East  Level FlightAware Approximate
Tue 12:04:00 AM 42.6934 -6.4461 99° East  Level FlightAware Approximate
Tue 12:05:00 AM 42.6712 -6.2662 99° East  Level FlightAware Approximate
Tue 12:06:00 AM 42.6488 -6.0864 100° East  Level FlightAware Approximate
Tue 12:07:00 AM 42.6260 -5.9067 100° East  Level FlightAware Approximate
Tue 12:08:00 AM 42.6030 -5.7272 100° East  Level FlightAware Approximate
Tue 12:09:00 AM 42.5798 -5.5478 100° East  Level FlightAware Approximate
Tue 12:10:00 AM 42.5562 -5.3685 100° East  Level FlightAware Approximate
Tue 12:11:00 AM 42.5323 -5.1894 100° East  Level FlightAware Approximate
Tue 12:12:00 AM 42.5082 -5.0104 100° East  Level FlightAware Approximate
Tue 12:13:00 AM 42.4838 -4.8316 100° East  Level FlightAware Approximate
Tue 12:14:00 AM 42.4592 -4.6529 101° East  Level FlightAware Approximate
Tue 12:15:00 AM 42.4342 -4.4743 101° East  Level FlightAware Approximate
Tue 12:16:00 AM 42.4090 -4.2959 101° East  Level FlightAware Approximate
Tue 12:17:00 AM 42.3835 -4.1176 101° East  Level FlightAware Approximate
Tue 12:18:00 AM 42.3571 -3.9397 101° East  Level FlightAware Approximate
Tue 12:19:00 AM 42.3305 -3.7618 101° East  Level FlightAware Approximate
Tue 12:20:00 AM 42.3036 -3.5841 102° East  Level FlightAware Approximate
Tue 12:21:00 AM 42.2764 -3.4066 102° East  Level FlightAware Approximate
Tue 12:22:00 AM 42.2490 -3.2292 102° East  Level FlightAware Approximate
Tue 12:23:00 AM 42.2212 -3.0520 102° East  Level FlightAware Approximate
Tue 12:24:00 AM 42.1933 -2.8750 102° East  Level FlightAware Approximate
Tue 12:25:00 AM 42.1650 -2.6981 102° East  Level FlightAware Approximate
Tue 12:26:00 AM 42.1365 -2.5213 102° East  Level FlightAware Approximate
Tue 12:27:00 AM 42.1077 -2.3447 102° East  Level FlightAware Approximate
Tue 12:28:00 AM 42.0786 -2.1683 102° East  Level FlightAware Approximate
Tue 12:29:00 AM 42.0492 -1.9921 103° East  Level FlightAware Approximate
Tue 12:30:00 AM 42.0196 -1.8160 103° East  Level FlightAware Approximate
Tue 12:31:00 AM 41.9897 -1.6400 103° East  Level FlightAware Approximate
Tue 12:32:00 AM 41.9596 -1.4643 103° East  Level FlightAware Approximate
Tue 12:33:00 AM 41.9291 -1.2887 103° East  Level FlightAware Approximate
Tue 12:34:00 AM 41.8984 -1.1133 103° East  Level FlightAware Approximate
Tue 12:35:00 AM 41.8675 -0.9380 103° East  Level FlightAware Approximate
Tue 12:36:00 AM 41.8403 -0.7617 102° East  Level FlightAware Approximate
Tue 12:37:00 AM 41.8104 -0.5863 103° East  Level FlightAware Approximate
Tue 12:38:00 AM 41.7775 -0.4120 110° East  Level FlightAware Approximate
Tue 12:39:00 AM 41.7322 -0.2429 103° East  Level FlightAware Approximate
Tue 12:40:00 AM 41.7049 -0.0670 101° East  Level FlightAware Approximate
Tue 12:41:00 AM 41.6771 0.1085 108° East  Level FlightAware Approximate
Tue 12:42:00 AM 41.6345 0.2787 108° East  Level FlightAware Approximate
Tue 12:43:00 AM 41.6025 0.4529 104° East  Level FlightAware Approximate
Tue 12:44:00 AM 41.5709 0.6271 104° East  Level FlightAware Approximate
Tue 12:45:00 AM 41.5405 0.8016 103° East  Level FlightAware Approximate
Tue 12:46:00 AM 41.5101 0.9761 103° East  Level FlightAware Approximate
Tue 12:47:00 AM 41.4735 1.1483 107° East  Level FlightAware Approximate
Tue 12:48:00 AM 41.4376 1.3205 103° East  Level FlightAware Approximate
Tue 12:49:00 AM 41.4069 1.4946 103° East  Level FlightAware Approximate
Tue 12:50:00 AM 41.3687 1.6659 106° East  Level FlightAware Approximate
Tue 12:51:00 AM 41.3363 1.8380 108° East  Level FlightAware Approximate
Tue 12:52:00 AM 41.3023 2.0097 114° Southeast  Level FlightAware Approximate
Tue 12:53:00 AM 41.2833 2.0667 114° Southeast  Level FlightAware Approximate
Tue 12:54:00 AM 41.2971 2.0785 114° Southeast  Level Estimated
Tue 12:55:00 AM 41.2971 2.0785 114° Southeast  Level Estimated
Tue 12:56:00 AM 41.2971 2.0785 114° Southeast  Level Estimated
Tue 12:57:00 AM 41.2971 2.0785 114° Southeast  Level Estimated
Tue 12:58:00 AM 41.2971 2.0785 114° Southeast  Level Estimated
Tue 12:59:00 AM 41.2971 2.0785 114° Southeast  Level Estimated
Tue 01:00:00 AM 41.2971 2.0785 114° Southeast  Level Estimated
Tue 01:01:00 AM 41.2971 2.0785 114° Southeast  Level Estimated
Tue 01:02:00 AM 41.2971 2.0785 114° Southeast  Level Estimated
Tue 01:03:00 AM 41.2971 2.0785 114° Southeast  Level Estimated
Tue 01:04:00 AM 41.2971 2.0785 114° Southeast  Level Estimated
Tue 01:05:00 AM 41.2971 2.0785 114° Southeast  Level Estimated
Tue 01:06:00 AM 41.2971 2.0785 114° Southeast  Level Estimated

Login

Don't have an account? Register now (free) for customized features, flight alerts, and more!